createdAt,value
2018-12-29T00:00:39.983Z,0.50
2018-12-29T00:03:08.430Z,0.50
2018-12-29T00:05:36.886Z,0.40
2018-12-29T00:08:05.317Z,0.50
2018-12-29T00:10:33.757Z,0.50
2018-12-29T00:13:02.205Z,0.40
2018-12-29T00:15:30.675Z,0.40
2018-12-29T00:17:59.170Z,0.40
2018-12-29T00:20:27.605Z,0.60
2018-12-29T00:22:56.061Z,0.70
2018-12-29T00:25:24.493Z,0.70
2018-12-29T00:27:53.233Z,0.80
2018-12-29T00:30:21.662Z,0.90
2018-12-29T00:32:50.094Z,0.90
2018-12-29T00:35:18.542Z,1.20
2018-12-29T00:37:46.978Z,1.40
2018-12-29T00:40:15.433Z,1.20
2018-12-29T00:42:43.883Z,1.40
2018-12-29T00:45:12.397Z,1.40
2018-12-29T00:47:40.847Z,1.40
2018-12-29T00:50:09.457Z,1.40
2018-12-29T00:52:37.906Z,1.40
2018-12-29T00:55:06.338Z,1.30
2018-12-29T00:57:34.909Z,1.10
2018-12-29T01:00:04.385Z,0.90
2018-12-29T01:02:32.839Z,0.50
2018-12-29T01:05:01.270Z,0.20
2018-12-29T01:07:29.704Z,0.00
2018-12-29T01:09:58.154Z,0.00
2018-12-29T01:12:26.750Z,-0.10
2018-12-29T01:14:55.217Z,-0.10
2018-12-29T01:17:23.650Z,-0.10
2018-12-29T01:19:52.105Z,-0.20
2018-12-29T01:22:20.613Z,-0.20
2018-12-29T01:24:49.061Z,0.00
2018-12-29T01:27:17.497Z,-0.10
2018-12-29T01:29:46.214Z,-0.20
2018-12-29T01:32:16.994Z,-0.40
2018-12-29T01:34:45.494Z,-0.50
2018-12-29T01:37:13.930Z,-0.50
2018-12-29T01:39:42.397Z,-0.60
2018-12-29T01:42:10.838Z,-0.60
2018-12-29T01:44:39.278Z,-0.60
2018-12-29T01:47:07.734Z,-0.70
2018-12-29T01:49:36.182Z,-0.90
2018-12-29T01:52:04.617Z,-0.90
2018-12-29T01:54:33.073Z,-0.50
2018-12-29T01:57:01.578Z,-0.60
2018-12-29T01:59:30.029Z,-0.80
2018-12-29T02:01:58.486Z,-1.00
2018-12-29T02:04:26.935Z,-1.10
2018-12-29T02:06:55.366Z,-1.00
2018-12-29T02:09:23.832Z,-1.00
2018-12-29T02:11:52.282Z,-0.80
2018-12-29T02:14:20.730Z,-0.70
2018-12-29T02:16:49.164Z,-0.70
2018-12-29T02:19:17.621Z,-0.70
2018-12-29T02:21:46.078Z,-0.70
2018-12-29T02:24:14.538Z,-0.70
2018-12-29T02:26:42.993Z,-0.80
2018-12-29T02:29:11.429Z,-0.80
2018-12-29T02:31:39.885Z,-0.80
2018-12-29T02:34:08.338Z,-0.60
2018-12-29T02:36:36.786Z,-0.10
2018-12-29T02:39:06.573Z,0.00
2018-12-29T02:41:35.033Z,-0.20
2018-12-29T02:44:03.491Z,-0.40
2018-12-29T02:46:31.929Z,-0.50
2018-12-29T02:49:00.369Z,-0.60
2018-12-29T02:51:28.821Z,-0.50
2018-12-29T02:53:57.264Z,-0.50
2018-12-29T02:56:25.713Z,-0.70
2018-12-29T02:58:54.162Z,-0.80
2018-12-29T03:01:22.630Z,-0.90
2018-12-29T03:03:51.066Z,-0.90
2018-12-29T03:06:19.505Z,-1.00
2018-12-29T03:08:47.962Z,-1.00
2018-12-29T03:11:16.414Z,-1.00
2018-12-29T03:13:44.871Z,-1.20
2018-12-29T03:16:13.322Z,-1.10
2018-12-29T03:18:41.850Z,-1.20
2018-12-29T03:21:10.365Z,-1.20
2018-12-29T03:23:38.823Z,-1.30
2018-12-29T03:26:07.261Z,-1.40
2018-12-29T03:28:35.717Z,-1.50
2018-12-29T03:31:04.176Z,-1.40
2018-12-29T03:33:32.682Z,-1.30
2018-12-29T03:36:01.142Z,-1.40
2018-12-29T03:38:29.661Z,-1.30
2018-12-29T03:40:58.113Z,-1.10
2018-12-29T03:43:26.605Z,-0.90
2018-12-29T03:45:55.109Z,-0.80
2018-12-29T03:48:23.578Z,-1.00
2018-12-29T03:50:52.020Z,-1.00
2018-12-29T03:53:20.526Z,-1.00
2018-12-29T03:55:48.986Z,-0.80
2018-12-29T03:58:17.419Z,-0.60
2018-12-29T04:00:45.879Z,-0.50
2018-12-29T04:03:14.329Z,-0.70
2018-12-29T04:05:42.778Z,-0.80
2018-12-29T04:08:11.309Z,-0.90
2018-12-29T04:10:39.744Z,-1.00
2018-12-29T04:13:08.274Z,-1.20
2018-12-29T04:15:36.789Z,-1.30
2018-12-29T04:18:05.322Z,-1.30
2018-12-29T04:20:33.757Z,-1.30
2018-12-29T04:23:02.294Z,-1.40
2018-12-29T04:25:30.756Z,-1.50
2018-12-29T04:27:59.190Z,-1.60
2018-12-29T04:30:27.645Z,-1.70
2018-12-29T04:32:56.094Z,-1.70
2018-12-29T04:35:24.557Z,-1.60
2018-12-29T04:37:53.025Z,-1.60
2018-12-29T04:40:21.485Z,-1.50
2018-12-29T04:42:49.933Z,-1.60
2018-12-29T04:45:18.385Z,-1.40
2018-12-29T04:47:46.833Z,-1.40
2018-12-29T04:50:15.273Z,-1.50
2018-12-29T04:52:43.726Z,-1.40
2018-12-29T04:55:12.185Z,-1.00
2018-12-29T04:57:40.629Z,-1.00
2018-12-29T05:00:09.142Z,-1.10
2018-12-29T05:02:37.601Z,-1.20
2018-12-29T05:05:06.047Z,-1.20
2018-12-29T05:07:34.502Z,-1.30
2018-12-29T05:10:03.626Z,-1.30
2018-12-29T05:12:32.073Z,-1.40
2018-12-29T05:15:00.545Z,-1.40
2018-12-29T05:17:29.042Z,-1.40
2018-12-29T05:19:57.506Z,-1.40
2018-12-29T05:22:25.945Z,-1.40
2018-12-29T05:24:54.393Z,-1.40
2018-12-29T05:27:22.833Z,-1.40
2018-12-29T05:29:51.273Z,-1.40
2018-12-29T05:32:19.729Z,-1.40
2018-12-29T05:34:48.169Z,-1.50
2018-12-29T05:37:16.622Z,-1.40
2018-12-29T05:39:45.131Z,-1.40
2018-12-29T05:42:13.594Z,-1.40
2018-12-29T05:44:42.032Z,-1.40
2018-12-29T05:47:10.488Z,-1.50
2018-12-29T05:49:38.936Z,-1.50
2018-12-29T05:52:07.398Z,-1.60
2018-12-29T05:54:35.840Z,-1.60
2018-12-29T05:57:04.302Z,-1.50
2018-12-29T05:59:32.765Z,-1.40
2018-12-29T06:02:01.211Z,-1.50
2018-12-29T06:04:29.661Z,-1.40
2018-12-29T06:06:58.101Z,-1.40
2018-12-29T06:09:26.566Z,-1.40
2018-12-29T06:11:55.010Z,-1.30
2018-12-29T06:14:23.461Z,-1.10
2018-12-29T06:16:51.918Z,-1.00
2018-12-29T06:19:20.369Z,-1.10
2018-12-29T06:21:48.821Z,-1.20
2018-12-29T06:24:17.277Z,-1.30
2018-12-29T06:26:45.743Z,-1.40
2018-12-29T06:29:14.184Z,-1.40
2018-12-29T06:31:42.621Z,-1.50
2018-12-29T06:34:11.073Z,-1.50
2018-12-29T06:36:39.514Z,-1.50
2018-12-29T06:39:08.022Z,-1.60
2018-12-29T06:41:36.477Z,-1.80
2018-12-29T06:44:04.926Z,-1.90
2018-12-29T06:46:35.180Z,-2.00
2018-12-29T06:49:03.556Z,-2.00
2018-12-29T06:51:32.058Z,-2.00
2018-12-29T06:54:00.514Z,-1.90
2018-12-29T06:56:29.030Z,-1.80
2018-12-29T06:58:57.481Z,-1.80
2018-12-29T07:01:25.925Z,-1.80
2018-12-29T07:03:54.382Z,-1.70
2018-12-29T07:06:22.822Z,-1.60
2018-12-29T07:08:51.284Z,-1.50
2018-12-29T07:11:19.813Z,-1.50
2018-12-29T07:13:48.256Z,-1.40
2018-12-29T07:16:16.710Z,-1.60
2018-12-29T07:18:45.150Z,-1.70
2018-12-29T07:21:13.597Z,-1.80
2018-12-29T07:23:42.154Z,-1.80
2018-12-29T07:26:11.082Z,-1.90
2018-12-29T07:28:39.538Z,-1.90
2018-12-29T07:31:07.989Z,-1.90
2018-12-29T07:33:36.442Z,-1.90
2018-12-29T07:36:04.881Z,-1.90
2018-12-29T07:38:33.397Z,-1.80
2018-12-29T07:41:01.884Z,-1.80
2018-12-29T07:43:30.602Z,-1.90
2018-12-29T07:45:59.045Z,-1.90
2018-12-29T07:48:27.495Z,-1.90
2018-12-29T07:50:56.109Z,-1.80
2018-12-29T07:53:24.553Z,-1.70
2018-12-29T07:55:53.017Z,-1.70
2018-12-29T07:58:21.473Z,-1.60
2018-12-29T08:00:49.929Z,-1.50
2018-12-29T08:03:18.363Z,-1.40
2018-12-29T08:05:46.822Z,-1.40
2018-12-29T08:08:15.253Z,-1.30
2018-12-29T08:10:43.715Z,-1.20
2018-12-29T08:13:12.218Z,-1.10
2018-12-29T08:15:40.673Z,-0.90
2018-12-29T08:18:09.109Z,-0.80
2018-12-29T08:20:37.569Z,-0.80
2018-12-29T08:23:06.014Z,-0.70
2018-12-29T08:25:41.269Z,-0.70
2018-12-29T08:28:11.031Z,-0.70
2018-12-29T08:30:39.498Z,-0.70
2018-12-29T08:33:07.934Z,-0.60
2018-12-29T08:35:36.369Z,-0.50
2018-12-29T08:38:04.821Z,-0.40
2018-12-29T08:40:33.294Z,-0.20
2018-12-29T08:43:01.750Z,-0.10
2018-12-29T08:45:30.187Z,0.10
2018-12-29T08:47:58.640Z,0.20
2018-12-29T08:50:27.089Z,0.30
2018-12-29T08:52:55.525Z,0.40
2018-12-29T08:55:23.976Z,0.50
2018-12-29T08:57:52.429Z,0.60
2018-12-29T09:00:20.953Z,0.80
2018-12-29T09:02:49.401Z,0.90
2018-12-29T09:05:17.834Z,1.00
2018-12-29T09:07:46.281Z,1.00
2018-12-29T09:10:14.786Z,1.10
2018-12-29T09:12:43.229Z,1.20
2018-12-29T09:15:11.762Z,1.30
2018-12-29T09:17:40.281Z,1.30
2018-12-29T09:20:08.728Z,1.40
2018-12-29T09:22:37.162Z,1.50
2018-12-29T09:25:05.685Z,1.50
2018-12-29T09:27:34.125Z,1.60
2018-12-29T09:30:02.713Z,1.60
2018-12-29T09:32:31.201Z,1.70
2018-12-29T09:34:59.643Z,1.70
2018-12-29T09:37:28.092Z,1.80
2018-12-29T09:39:56.550Z,1.90
2018-12-29T09:42:25.100Z,2.00
2018-12-29T09:44:53.575Z,2.10
2018-12-29T09:47:22.355Z,2.20
2018-12-29T09:49:50.810Z,2.30
2018-12-29T09:52:19.385Z,2.40
2018-12-29T09:54:48.029Z,2.50
2018-12-29T09:57:16.479Z,2.70
2018-12-29T09:59:45.687Z,2.80
2018-12-29T10:02:14.262Z,3.00
2018-12-29T10:04:43.166Z,3.20
2018-12-29T10:07:11.854Z,3.30
2018-12-29T10:09:40.310Z,3.50
2018-12-29T10:12:08.831Z,3.60
2018-12-29T10:14:37.341Z,3.70
2018-12-29T10:17:06.090Z,3.80
2018-12-29T10:19:34.525Z,3.80
2018-12-29T10:22:03.209Z,3.90
2018-12-29T10:24:31.658Z,4.10
2018-12-29T10:27:00.089Z,4.10
2018-12-29T10:29:28.538Z,4.10
2018-12-29T10:31:56.973Z,4.20
2018-12-29T10:34:25.467Z,4.20
2018-12-29T10:36:53.943Z,4.20
2018-12-29T10:39:22.390Z,4.20
2018-12-29T10:41:50.839Z,4.20
2018-12-29T10:44:19.280Z,4.20
2018-12-29T10:46:47.733Z,4.30
2018-12-29T10:49:16.166Z,4.40
2018-12-29T10:51:44.614Z,4.40
2018-12-29T10:54:13.246Z,4.50
2018-12-29T10:56:41.699Z,4.60
2018-12-29T10:59:10.157Z,4.70
2018-12-29T11:01:38.590Z,4.70
2018-12-29T11:04:07.075Z,4.80
2018-12-29T11:06:35.553Z,4.80
2018-12-29T11:09:05.626Z,4.90
2018-12-29T11:11:34.077Z,4.90
2018-12-29T11:14:02.517Z,5.10
2018-12-29T11:16:31.101Z,5.20
2018-12-29T11:18:59.549Z,5.30
2018-12-29T11:21:28.002Z,5.40
2018-12-29T11:23:56.458Z,5.40
2018-12-29T11:26:24.967Z,5.40
2018-12-29T11:28:53.402Z,5.50
2018-12-29T11:31:21.857Z,5.50
2018-12-29T11:33:50.300Z,5.40
2018-12-29T11:36:18.741Z,5.50
2018-12-29T11:38:47.173Z,5.60
2018-12-29T11:41:15.625Z,5.60
2018-12-29T11:43:44.075Z,5.60
2018-12-29T11:46:12.529Z,5.70
2018-12-29T11:48:40.959Z,5.70
2018-12-29T11:51:09.482Z,5.70
2018-12-29T11:53:38.013Z,5.70
2018-12-29T11:56:06.534Z,5.70
2018-12-29T11:58:35.041Z,5.70
2018-12-29T12:01:03.569Z,5.70
2018-12-29T12:03:32.009Z,5.70
2018-12-29T12:06:00.529Z,5.70
2018-12-29T12:08:28.961Z,5.60
2018-12-29T12:10:57.413Z,5.80
2018-12-29T12:13:25.925Z,5.70
2018-12-29T12:15:54.458Z,5.70
2018-12-29T12:18:22.981Z,5.80
2018-12-29T12:20:51.490Z,5.80
2018-12-29T12:23:19.938Z,5.90
2018-12-29T12:25:48.387Z,5.90
2018-12-29T12:28:16.897Z,5.60
2018-12-29T12:30:45.421Z,5.60
2018-12-29T12:33:14.150Z,5.70
2018-12-29T12:35:42.677Z,5.60
2018-12-29T12:38:11.385Z,5.70
2018-12-29T12:40:39.921Z,5.70
2018-12-29T12:43:08.451Z,5.70
2018-12-29T12:45:37.262Z,5.70
2018-12-29T12:48:05.785Z,5.90
2018-12-29T12:50:34.297Z,5.80
2018-12-29T12:53:02.753Z,5.90
2018-12-29T12:55:31.684Z,6.00
2018-12-29T12:58:00.409Z,6.10
2018-12-29T13:00:29.121Z,6.20
2018-12-29T13:02:58.038Z,6.20
2018-12-29T13:05:26.569Z,6.20
2018-12-29T13:07:55.077Z,6.20
2018-12-29T13:10:23.530Z,6.20
2018-12-29T13:12:51.965Z,6.20
2018-12-29T13:15:21.777Z,6.20
2018-12-29T13:17:50.385Z,6.10
2018-12-29T13:20:18.921Z,6.10
2018-12-29T13:22:47.446Z,6.10
2018-12-29T13:25:16.134Z,6.20
2018-12-29T13:27:44.661Z,6.10
2018-12-29T13:30:13.189Z,6.00
2018-12-29T13:32:41.711Z,6.00
2018-12-29T13:35:10.305Z,6.00
2018-12-29T13:37:38.817Z,5.90
2018-12-29T13:40:09.590Z,5.90
2018-12-29T13:42:38.045Z,5.90
2018-12-29T13:45:07.197Z,5.90
2018-12-29T13:47:35.719Z,6.00
2018-12-29T13:50:05.938Z,5.90
2018-12-29T13:52:34.442Z,5.80
2018-12-29T13:55:04.070Z,5.80
2018-12-29T13:57:32.913Z,5.70
2018-12-29T14:00:01.441Z,5.70
2018-12-29T14:02:31.094Z,5.60
2018-12-29T14:04:59.613Z,5.60
2018-12-29T14:07:28.141Z,5.50
2018-12-29T14:09:56.878Z,5.50
2018-12-29T14:12:25.393Z,5.30
2018-12-29T14:14:53.921Z,5.20
2018-12-29T14:17:22.445Z,5.10
2018-12-29T14:19:50.955Z,5.10
2018-12-29T14:22:19.666Z,5.00
2018-12-29T14:24:48.197Z,5.00
2018-12-29T14:27:16.725Z,4.90
2018-12-29T14:29:45.246Z,4.80
2018-12-29T14:32:13.685Z,4.70
2018-12-29T14:34:42.326Z,4.60
2018-12-29T14:37:10.846Z,4.50
2018-12-29T14:39:39.361Z,4.30
2018-12-29T14:42:07.893Z,4.30
2018-12-29T14:44:36.401Z,4.20
2018-12-29T14:47:04.862Z,4.10
2018-12-29T14:49:33.435Z,4.00
2018-12-29T14:52:01.909Z,4.00
2018-12-29T14:54:30.437Z,3.80
2018-12-29T14:56:58.961Z,3.80
2018-12-29T14:59:27.487Z,3.60
2018-12-29T15:01:56.001Z,3.60
2018-12-29T15:04:24.534Z,3.50
2018-12-29T15:06:53.049Z,3.40
2018-12-29T15:09:21.577Z,3.40
2018-12-29T15:11:50.013Z,3.30
2018-12-29T15:14:18.545Z,3.40
2018-12-29T15:16:48.761Z,3.30
2018-12-29T15:19:17.198Z,3.30
2018-12-29T15:21:45.729Z,3.20
2018-12-29T15:24:14.249Z,3.10
2018-12-29T15:26:43.260Z,3.10
2018-12-29T15:29:11.970Z,3.00
2018-12-29T15:31:40.490Z,2.90
2018-12-29T15:34:09.029Z,2.80
2018-12-29T15:36:37.848Z,2.80
2018-12-29T15:39:06.941Z,2.70
2018-12-29T15:41:35.453Z,2.40
2018-12-29T15:44:04.286Z,2.30
2018-12-29T15:46:32.818Z,2.20
2018-12-29T15:49:01.335Z,2.10
2018-12-29T15:51:29.856Z,2.10
2018-12-29T15:53:58.369Z,2.10
2018-12-29T15:56:27.305Z,2.00
2018-12-29T15:58:55.818Z,1.90
2018-12-29T16:01:24.761Z,1.70
2018-12-29T16:03:53.277Z,1.70
2018-12-29T16:06:21.795Z,1.60
2018-12-29T16:08:50.318Z,1.50
2018-12-29T16:11:25.996Z,1.30
2018-12-29T16:13:49.347Z,1.30
2018-12-29T16:16:17.864Z,1.10
2018-12-29T16:18:46.438Z,1.10
2018-12-29T16:21:15.261Z,1.00
2018-12-29T16:26:28.531Z,0.70
2018-12-29T16:28:57.046Z,0.60
2018-12-29T16:31:25.563Z,0.50
2018-12-29T16:33:54.198Z,0.40
2018-12-29T16:36:22.813Z,0.30
2018-12-29T16:38:51.350Z,0.20
2018-12-29T16:41:19.865Z,0.20
2018-12-29T16:43:48.405Z,0.30
2018-12-29T16:46:16.921Z,0.60
2018-12-29T16:48:49.996Z,0.80
2018-12-29T16:51:18.502Z,0.90
2018-12-29T16:53:47.338Z,0.90
2018-12-29T16:56:15.854Z,0.70
2018-12-29T16:58:44.393Z,0.60
2018-12-29T17:01:12.925Z,0.60
2018-12-29T17:03:41.841Z,0.50
2018-12-29T17:06:10.370Z,0.40
2018-12-29T17:08:38.901Z,0.30
2018-12-29T17:11:07.488Z,0.20
2018-12-29T17:13:36.427Z,0.00
2018-12-29T17:16:04.946Z,-0.10
2018-12-29T17:18:33.490Z,-0.20
2018-12-29T17:21:02.206Z,-0.20
2018-12-29T17:23:30.731Z,-0.20
2018-12-29T17:25:59.273Z,-0.20
2018-12-29T17:28:28.098Z,-0.20
2018-12-29T17:30:56.643Z,-0.30
2018-12-29T17:33:25.169Z,-0.20
2018-12-29T17:35:53.706Z,-0.30
2018-12-29T17:38:22.226Z,-0.40
2018-12-29T17:40:50.763Z,-0.40
2018-12-29T17:43:19.297Z,-0.50
2018-12-29T17:45:47.837Z,-0.50
2018-12-29T17:48:16.365Z,-0.60
2018-12-29T17:50:45.210Z,-0.50
2018-12-29T17:53:13.738Z,-0.60
2018-12-29T17:55:42.274Z,-0.70
2018-12-29T17:58:10.809Z,-0.70
2018-12-29T18:00:39.342Z,-0.80
2018-12-29T18:03:08.073Z,-0.80
2018-12-29T18:05:36.610Z,-0.80
2018-12-29T18:08:05.149Z,-0.80
2018-12-29T18:10:33.750Z,-0.90
2018-12-29T18:13:02.288Z,-0.80
2018-12-29T18:15:30.854Z,-0.70
2018-12-29T18:17:59.413Z,-0.70
2018-12-29T18:20:27.941Z,-0.70
2018-12-29T18:22:56.531Z,-0.90
2018-12-29T18:25:27.839Z,-0.90
2018-12-29T18:27:56.363Z,-1.00
2018-12-29T18:30:26.525Z,-1.00
2018-12-29T18:32:55.046Z,-0.90
2018-12-29T18:35:23.801Z,-0.90
2018-12-29T18:37:52.323Z,-0.90
2018-12-29T18:40:20.966Z,-1.00
2018-12-29T18:42:49.878Z,-1.00
2018-12-29T18:45:19.933Z,-1.10
2018-12-29T18:47:48.966Z,-1.30
2018-12-29T18:50:18.975Z,-1.40
2018-12-29T18:52:47.505Z,-1.50
2018-12-29T18:55:16.022Z,-1.60
2018-12-29T18:57:44.661Z,-1.60
2018-12-29T19:00:13.190Z,-1.50
2018-12-29T19:02:41.717Z,-1.40
2018-12-29T19:05:10.253Z,-1.30
2018-12-29T19:07:38.778Z,-1.20
2018-12-29T19:10:08.005Z,-1.30
2018-12-29T19:12:36.545Z,-1.40
2018-12-29T19:15:06.842Z,-1.60
2018-12-29T19:17:35.586Z,-1.60
2018-12-29T19:20:06.237Z,-1.60
2018-12-29T19:22:34.681Z,-1.70
2018-12-29T19:25:03.285Z,-1.60
2018-12-29T19:27:31.801Z,-1.70
2018-12-29T19:30:00.343Z,-1.60
2018-12-29T19:32:28.996Z,-1.50
2018-12-29T19:34:57.964Z,-1.40
2018-12-29T19:37:26.453Z,-1.40
2018-12-29T19:39:55.387Z,-1.30
2018-12-29T19:42:23.910Z,-1.40
2018-12-29T19:44:52.433Z,-1.40
2018-12-29T19:47:20.965Z,-1.50
2018-12-29T19:49:53.617Z,-1.60
2018-12-29T19:52:19.690Z,-1.70
2018-12-29T19:54:48.246Z,-1.80
2018-12-29T19:57:17.066Z,-1.90
2018-12-29T19:59:45.987Z,-1.90
2018-12-29T20:02:14.826Z,-1.90
2018-12-29T20:04:43.266Z,-1.80
2018-12-29T20:07:12.193Z,-1.80
2018-12-29T20:09:41.034Z,-1.70
2018-12-29T20:12:09.549Z,-1.70
2018-12-29T20:14:38.081Z,-1.60
2018-12-29T20:17:06.609Z,-1.50
2018-12-29T20:19:35.145Z,-1.50
2018-12-29T20:22:04.046Z,-1.40
2018-12-29T20:24:32.646Z,-1.50
2018-12-29T20:27:01.154Z,-1.60
2018-12-29T20:29:30.901Z,-1.70
2018-12-29T20:31:59.537Z,-1.70
2018-12-29T20:34:28.079Z,-1.70
2018-12-29T20:36:56.595Z,-1.70
2018-12-29T20:39:25.132Z,-1.60
2018-12-29T20:41:55.346Z,-1.60
2018-12-29T20:44:23.867Z,-1.50
2018-12-29T20:46:52.397Z,-1.50
2018-12-29T20:49:20.931Z,-1.50
2018-12-29T20:51:49.438Z,-1.50
2018-12-29T20:54:17.966Z,-1.50
2018-12-29T20:56:46.481Z,-1.50
2018-12-29T20:59:15.013Z,-1.40
2018-12-29T21:01:43.825Z,-1.40
2018-12-29T21:04:12.354Z,-1.50
2018-12-29T21:06:40.878Z,-1.60
2018-12-29T21:09:09.410Z,-1.50
2018-12-29T21:11:37.938Z,-1.40
2018-12-29T21:14:06.454Z,-1.40
2018-12-29T21:16:35.194Z,-1.50
2018-12-29T21:19:03.721Z,-1.50
2018-12-29T21:21:32.255Z,-1.40
2018-12-29T21:24:00.791Z,-1.40
2018-12-29T21:26:29.310Z,-1.40
2018-12-29T21:28:57.841Z,-1.40
2018-12-29T21:31:26.354Z,-1.50
2018-12-29T21:33:54.890Z,-1.50
2018-12-29T21:36:23.405Z,-1.50
2018-12-29T21:38:51.938Z,-1.50
2018-12-29T21:41:20.457Z,-1.50
2018-12-29T21:43:49.385Z,-1.40
2018-12-29T21:46:17.903Z,-1.40
2018-12-29T21:48:49.153Z,-1.30
2018-12-29T21:51:17.674Z,-1.20
2018-12-29T21:53:46.205Z,-1.20
2018-12-29T21:56:14.730Z,-1.20
2018-12-29T21:58:43.246Z,-1.10
2018-12-29T22:01:11.773Z,-1.10
2018-12-29T22:03:40.296Z,-1.00
2018-12-29T22:06:08.834Z,-1.00
2018-12-29T22:08:37.351Z,-1.00
2018-12-29T22:11:06.181Z,-1.00
2018-12-29T22:13:34.714Z,-1.00
2018-12-29T22:16:03.221Z,-1.00
2018-12-29T22:18:31.681Z,-1.00
2018-12-29T22:21:00.209Z,-0.90
2018-12-29T22:23:28.710Z,-0.80
2018-12-29T22:25:57.239Z,-0.80
2018-12-29T22:28:25.752Z,-0.70
2018-12-29T22:30:54.290Z,-0.80
2018-12-29T22:33:22.806Z,-0.80
2018-12-29T22:35:51.337Z,-0.80
2018-12-29T22:38:20.265Z,-0.80
2018-12-29T22:40:48.797Z,-0.80
2018-12-29T22:43:17.313Z,-0.80
2018-12-29T22:45:45.825Z,-0.90
2018-12-29T22:48:14.357Z,-1.00
2018-12-29T22:50:42.871Z,-1.00
2018-12-29T22:53:11.410Z,-1.10
2018-12-29T22:55:39.921Z,-1.10
2018-12-29T22:58:08.954Z,-1.10
2018-12-29T23:00:39.134Z,-1.10
2018-12-29T23:03:07.722Z,-1.00
2018-12-29T23:05:36.253Z,-1.00
2018-12-29T23:08:04.837Z,-0.90
2018-12-29T23:10:33.381Z,-0.90
2018-12-29T23:13:02.297Z,-0.90
2018-12-29T23:15:30.830Z,-0.90
2018-12-29T23:17:59.341Z,-1.00
2018-12-29T23:20:27.790Z,-1.10
2018-12-29T23:22:56.329Z,-1.10
2018-12-29T23:25:24.855Z,-1.20
2018-12-29T23:27:53.377Z,-1.20
2018-12-29T23:30:21.922Z,-1.20
2018-12-29T23:32:50.741Z,-1.20
2018-12-29T23:35:19.266Z,-1.20
2018-12-29T23:37:47.809Z,-1.20
2018-12-29T23:40:16.329Z,-1.20
2018-12-29T23:42:44.838Z,-1.20
2018-12-29T23:45:13.373Z,-1.10
2018-12-29T23:47:43.307Z,-1.00
2018-12-29T23:50:12.028Z,-1.10
2018-12-29T23:52:40.959Z,-1.00
2018-12-29T23:55:09.466Z,-1.10
2018-12-29T23:57:37.999Z,-1.10
